createdAt,value
2018-10-02T00:02:02.231Z,6.40
2018-10-02T00:04:37.972Z,6.85
2018-10-02T00:07:13.206Z,12.23
2018-10-02T00:09:48.854Z,7.53
2018-10-02T00:12:29.454Z,4.70
2018-10-02T00:15:04.986Z,6.95
2018-10-02T00:17:40.368Z,7.17
2018-10-02T00:20:16.070Z,10.35
2018-10-02T00:22:51.616Z,8.53
2018-10-02T00:25:27.105Z,5.75
2018-10-02T00:28:02.417Z,6.92
2018-10-02T00:30:38.353Z,12.30
2018-10-02T00:33:13.648Z,9.30
2018-10-02T00:35:49.281Z,7.80
2018-10-02T00:38:24.845Z,9.18
2018-10-02T00:41:00.340Z,6.42
2018-10-02T00:43:35.873Z,15.08
2018-10-02T00:46:11.369Z,3.45
2018-10-02T00:48:46.773Z,5.75
2018-10-02T00:51:22.184Z,9.30
2018-10-02T00:53:57.749Z,8.90
2018-10-02T00:56:33.425Z,9.35
2018-10-02T00:59:08.848Z,10.45
2018-10-02T01:01:44.445Z,8.53
2018-10-02T01:04:19.952Z,10.75
2018-10-02T01:06:55.375Z,9.85
2018-10-02T01:09:30.967Z,7.15
2018-10-02T01:12:06.466Z,5.33
2018-10-02T01:14:41.922Z,13.60
2018-10-02T01:17:17.529Z,5.80
2018-10-02T01:19:52.970Z,5.72
2018-10-02T01:22:28.337Z,9.20
2018-10-02T01:25:03.919Z,5.78
2018-10-02T01:27:39.523Z,7.67
2018-10-02T01:30:15.169Z,6.12
2018-10-02T01:32:50.776Z,6.67
2018-10-02T01:35:26.774Z,6.65
2018-10-02T01:38:02.308Z,16.97
2018-10-02T01:40:37.646Z,10.72
2018-10-02T01:43:13.180Z,12.35
2018-10-02T01:45:48.754Z,8.33
2018-10-02T01:48:24.274Z,5.03
2018-10-02T01:51:00.255Z,6.42
2018-10-02T01:53:36.418Z,7.80
2018-10-02T01:56:12.012Z,10.05
2018-10-02T01:58:47.499Z,19.02
2018-10-02T02:01:23.166Z,7.22
2018-10-02T02:03:58.705Z,8.93
2018-10-02T02:06:34.253Z,12.80
2018-10-02T02:09:09.940Z,7.67
2018-10-02T02:11:45.311Z,6.08
2018-10-02T02:14:20.733Z,15.28
2018-10-02T02:16:56.039Z,6.95
2018-10-02T02:19:31.621Z,10.32
2018-10-02T02:22:07.076Z,10.30
2018-10-02T02:24:42.716Z,6.97
2018-10-02T02:27:18.232Z,12.68
2018-10-02T02:29:53.732Z,8.85
2018-10-02T02:32:29.106Z,8.53
2018-10-02T02:35:04.680Z,9.25
2018-10-02T02:37:40.057Z,7.45
2018-10-02T02:40:15.546Z,13.03
2018-10-02T02:42:51.184Z,17.77
2018-10-02T02:45:26.809Z,7.97
2018-10-02T02:48:07.550Z,11.97
2018-10-02T02:50:46.758Z,6.53
2018-10-02T02:53:22.737Z,13.80
2018-10-02T02:55:58.453Z,8.43
2018-10-02T02:58:34.006Z,7.97
2018-10-02T03:01:09.576Z,7.17
2018-10-02T03:03:44.994Z,9.18
2018-10-02T03:06:20.642Z,9.30
2018-10-02T03:08:56.410Z,8.68
2018-10-02T03:11:31.811Z,9.05
2018-10-02T03:14:07.334Z,12.18
2018-10-02T03:16:42.955Z,11.28
2018-10-02T03:19:18.369Z,13.20
2018-10-02T03:21:53.882Z,11.63
2018-10-02T03:24:29.284Z,11.38
2018-10-02T03:27:04.712Z,11.83
2018-10-02T03:29:40.102Z,14.40
2018-10-02T03:32:15.612Z,6.28
2018-10-02T03:34:50.977Z,8.35
2018-10-02T03:37:26.751Z,10.18
2018-10-02T03:40:02.164Z,8.90
2018-10-02T03:42:37.835Z,13.03
2018-10-02T03:45:13.136Z,8.28
2018-10-02T03:47:48.694Z,7.30
2018-10-02T03:50:24.135Z,4.53
2018-10-02T03:52:59.511Z,18.82
2018-10-02T03:55:34.982Z,10.70
2018-10-02T03:58:10.398Z,9.53
2018-10-02T04:00:45.892Z,11.00
2018-10-02T04:03:21.656Z,14.30
2018-10-02T04:05:57.161Z,7.37
2018-10-02T04:08:32.721Z,7.62
2018-10-02T04:11:08.006Z,13.72
2018-10-02T04:13:43.441Z,7.50
2018-10-02T04:16:18.921Z,15.55
2018-10-02T04:18:54.529Z,8.70
2018-10-02T04:21:37.101Z,16.45
2018-10-02T04:24:12.656Z,6.90
2018-10-02T04:26:48.002Z,10.98
2018-10-02T04:29:23.397Z,10.13
2018-10-02T04:31:58.589Z,7.12
2018-10-02T04:34:34.127Z,4.60
2018-10-02T04:37:09.629Z,5.60
2018-10-02T04:39:45.181Z,12.73
2018-10-02T04:42:20.398Z,14.20
2018-10-02T04:44:55.962Z,6.67
2018-10-02T04:47:31.532Z,11.22
2018-10-02T04:50:07.035Z,8.25
2018-10-02T04:52:42.495Z,9.25
2018-10-02T04:55:18.097Z,9.28
2018-10-02T04:57:53.624Z,5.17
2018-10-02T05:00:29.222Z,15.55
2018-10-02T05:03:04.707Z,8.08
2018-10-02T05:05:40.437Z,16.15
2018-10-02T05:08:15.893Z,7.42
2018-10-02T05:10:51.426Z,9.43
2018-10-02T05:13:26.825Z,6.75
2018-10-02T05:16:02.234Z,6.75
2018-10-02T05:18:37.716Z,6.40
2018-10-02T05:21:13.180Z,9.95
2018-10-02T05:23:48.575Z,8.48
2018-10-02T05:26:25.289Z,8.23
2018-10-02T05:29:00.784Z,16.48
2018-10-02T05:31:36.303Z,8.15
2018-10-02T05:34:11.830Z,7.37
2018-10-02T05:36:47.455Z,8.25
2018-10-02T05:39:22.861Z,8.25
2018-10-02T05:41:58.334Z,12.50
2018-10-02T05:44:33.722Z,10.95
2018-10-02T05:47:09.208Z,8.60
2018-10-02T05:49:44.739Z,6.12
2018-10-02T05:52:20.311Z,4.67
2018-10-02T05:54:55.759Z,14.40
2018-10-02T05:57:31.589Z,10.15
2018-10-02T06:00:07.294Z,11.38
2018-10-02T06:02:42.901Z,11.70
2018-10-02T06:05:18.282Z,6.05
2018-10-02T06:07:53.786Z,12.53
2018-10-02T06:10:29.189Z,6.67
2018-10-02T06:13:04.590Z,7.47
2018-10-02T06:15:40.141Z,23.67
2018-10-02T06:18:15.568Z,12.78
2018-10-02T06:20:51.114Z,11.65
2018-10-02T06:23:26.828Z,11.03
2018-10-02T06:26:02.223Z,5.00
2018-10-02T06:28:37.957Z,8.20
2018-10-02T06:31:13.337Z,10.93
2018-10-02T06:33:48.762Z,9.50
2018-10-02T06:36:24.126Z,15.40
2018-10-02T06:38:59.603Z,5.75
2018-10-02T06:41:35.236Z,8.75
2018-10-02T06:44:10.642Z,7.80
2018-10-02T06:46:46.136Z,8.23
2018-10-02T06:49:21.692Z,5.45
2018-10-02T06:51:57.259Z,9.20
2018-10-02T06:54:32.626Z,6.78
2018-10-02T06:57:08.220Z,13.50
2018-10-02T06:59:43.709Z,9.90
2018-10-02T07:02:19.041Z,15.55
2018-10-02T07:04:54.582Z,9.38
2018-10-02T07:07:29.929Z,9.50
2018-10-02T07:10:06.339Z,8.93
2018-10-02T07:12:41.959Z,23.07
2018-10-02T07:15:17.525Z,10.10
2018-10-02T07:17:52.824Z,12.00
2018-10-02T07:20:28.339Z,8.45
2018-10-02T07:23:03.904Z,8.68
2018-10-02T07:25:39.537Z,7.30
2018-10-02T07:28:15.218Z,11.08
2018-10-02T07:30:50.925Z,9.80
2018-10-02T07:33:26.320Z,7.97
2018-10-02T07:36:01.825Z,5.40
2018-10-02T07:38:37.296Z,10.18
2018-10-02T07:41:12.756Z,10.30
2018-10-02T07:43:48.177Z,9.08
2018-10-02T07:46:23.558Z,8.95
2018-10-02T07:48:59.182Z,12.18
2018-10-02T07:51:34.737Z,13.58
2018-10-02T07:54:10.132Z,11.15
2018-10-02T07:56:45.912Z,8.83
2018-10-02T07:59:21.252Z,6.55
2018-10-02T08:01:56.977Z,9.78
2018-10-02T08:04:32.453Z,10.23
2018-10-02T08:07:07.933Z,11.33
2018-10-02T08:09:43.187Z,7.33
2018-10-02T08:12:18.790Z,13.98
2018-10-02T08:14:54.169Z,8.13
2018-10-02T08:17:29.789Z,8.45
2018-10-02T08:20:05.210Z,6.30
2018-10-02T08:22:40.697Z,14.43
2018-10-02T08:25:16.083Z,9.70
2018-10-02T08:27:51.617Z,11.33
2018-10-02T08:30:26.890Z,14.07
2018-10-02T08:33:02.683Z,14.43
2018-10-02T08:35:38.200Z,7.05
2018-10-02T08:38:13.636Z,5.08
2018-10-02T08:40:49.117Z,7.83
2018-10-02T08:43:24.603Z,11.33
2018-10-02T08:46:06.646Z,10.10
2018-10-02T08:48:42.508Z,10.30
2018-10-02T08:51:18.090Z,14.63
2018-10-02T08:53:53.765Z,15.80
2018-10-02T08:56:29.300Z,7.65
2018-10-02T08:59:04.899Z,7.72
2018-10-02T09:01:40.626Z,9.85
2018-10-02T09:04:16.205Z,9.18
2018-10-02T09:06:51.691Z,7.78
2018-10-02T09:09:27.055Z,8.50
2018-10-02T09:12:02.530Z,13.70
2018-10-02T09:14:38.052Z,8.28
2018-10-02T09:17:13.384Z,9.25
2018-10-02T09:19:48.805Z,7.10
2018-10-02T09:22:24.169Z,7.80
2018-10-02T09:24:59.746Z,9.68
2018-10-02T09:27:35.060Z,10.25
2018-10-02T09:30:15.947Z,10.48
2018-10-02T09:32:56.489Z,8.73
2018-10-02T09:35:37.288Z,8.08
2018-10-02T09:38:18.038Z,13.43
2018-10-02T09:40:58.861Z,9.78
2018-10-02T09:43:45.395Z,11.75
2018-10-02T09:46:21.437Z,7.15
2018-10-02T09:48:56.922Z,12.40
2018-10-02T09:51:32.367Z,12.45
2018-10-02T09:54:07.627Z,9.28
2018-10-02T09:56:44.118Z,10.08
2018-10-02T09:59:19.534Z,10.93
2018-10-02T10:02:00.538Z,11.57
2018-10-02T10:04:35.813Z,11.65
2018-10-02T10:07:11.273Z,10.90
2018-10-02T10:09:46.705Z,10.48
2018-10-02T10:12:22.272Z,8.70
2018-10-02T10:14:57.612Z,8.45
2018-10-02T10:17:33.067Z,9.00
2018-10-02T10:20:08.405Z,8.88
2018-10-02T10:22:44.001Z,7.85
2018-10-02T10:25:19.325Z,7.55
2018-10-02T10:27:54.891Z,8.80
2018-10-02T10:30:30.369Z,8.88
2018-10-02T10:33:05.881Z,8.60
2018-10-02T10:35:41.220Z,7.92
2018-10-02T10:38:16.685Z,8.40
2018-10-02T10:40:52.190Z,10.40
2018-10-02T10:43:27.657Z,8.18
2018-10-02T10:46:03.004Z,8.13
2018-10-02T10:48:38.460Z,8.90
2018-10-02T10:51:14.096Z,8.50
2018-10-02T10:53:49.590Z,9.93
2018-10-02T10:56:25.051Z,9.35
2018-10-02T10:59:00.662Z,7.55
2018-10-02T11:01:36.141Z,8.95
2018-10-02T11:04:11.987Z,8.40
2018-10-02T11:06:47.636Z,8.80
2018-10-02T11:09:23.486Z,11.25
2018-10-02T11:11:58.857Z,9.28
2018-10-02T11:14:34.339Z,9.75
2018-10-02T11:17:09.953Z,9.60
2018-10-02T11:19:45.674Z,9.63
2018-10-02T11:22:21.261Z,8.13
2018-10-02T11:24:56.585Z,7.58
2018-10-02T11:27:32.068Z,10.53
2018-10-02T11:30:08.346Z,9.33
2018-10-02T11:32:44.027Z,8.98
2018-10-02T11:35:19.579Z,9.10
2018-10-02T11:37:55.013Z,9.23
2018-10-02T11:40:30.825Z,7.65
2018-10-02T11:43:06.095Z,8.40
2018-10-02T11:45:41.576Z,8.93
2018-10-02T11:48:16.874Z,8.30
2018-10-02T11:50:52.319Z,8.58
2018-10-02T11:53:27.590Z,7.80
2018-10-02T11:56:03.396Z,9.30
2018-10-02T11:58:38.666Z,8.65
2018-10-02T12:01:14.474Z,8.30
2018-10-02T12:03:49.999Z,8.73
2018-10-02T12:06:25.486Z,9.10
2018-10-02T12:09:00.860Z,8.30
2018-10-02T12:11:36.217Z,8.43
2018-10-02T12:14:11.973Z,8.85
2018-10-02T12:16:47.053Z,7.50
2018-10-02T12:19:22.576Z,7.25
2018-10-02T12:21:58.230Z,6.92
2018-10-02T12:24:33.752Z,6.78
2018-10-02T12:27:09.334Z,7.10
2018-10-02T12:29:44.663Z,6.40
2018-10-02T12:32:20.195Z,6.53
2018-10-02T12:34:55.589Z,7.35
2018-10-02T12:37:30.992Z,7.62
2018-10-02T12:40:06.397Z,6.55
2018-10-02T12:42:41.856Z,6.87
2018-10-02T12:45:17.276Z,6.78
2018-10-02T12:47:52.713Z,6.08
2018-10-02T12:50:27.972Z,6.83
2018-10-02T12:53:03.932Z,7.17
2018-10-02T12:55:39.316Z,8.68
2018-10-02T12:58:14.762Z,7.15
2018-10-02T13:00:50.309Z,9.00
2018-10-02T13:03:25.709Z,9.03
2018-10-02T13:06:01.165Z,8.03
2018-10-02T13:08:36.867Z,7.90
2018-10-02T13:11:12.211Z,7.78
2018-10-02T13:13:47.685Z,7.60
2018-10-02T13:16:23.226Z,8.65
2018-10-02T13:18:58.744Z,12.15
2018-10-02T13:21:34.216Z,9.70
2018-10-02T13:24:09.711Z,11.53
2018-10-02T13:26:45.242Z,11.55
2018-10-02T13:29:20.859Z,11.25
2018-10-02T13:31:56.269Z,11.75
2018-10-02T13:34:31.915Z,11.08
2018-10-02T13:37:07.365Z,17.12
2018-10-02T13:39:42.905Z,10.20
2018-10-02T13:42:18.380Z,10.93
2018-10-02T13:44:54.149Z,12.33
2018-10-02T13:47:29.750Z,12.28
2018-10-02T13:50:05.308Z,11.90
2018-10-02T13:52:40.685Z,14.60
2018-10-02T13:55:16.110Z,13.35
2018-10-02T13:57:51.502Z,12.90
2018-10-02T14:00:27.210Z,13.75
2018-10-02T14:03:03.037Z,14.87
2018-10-02T14:05:45.340Z,13.15
2018-10-02T14:08:20.883Z,11.97
2018-10-02T14:10:56.413Z,13.90
2018-10-02T14:13:31.908Z,15.05
2018-10-02T14:16:07.730Z,12.80
2018-10-02T14:18:43.149Z,13.48
2018-10-02T14:21:18.847Z,8.80
2018-10-02T14:23:54.124Z,9.25
2018-10-02T14:26:29.449Z,7.80
2018-10-02T14:29:04.970Z,10.90
2018-10-02T14:31:40.357Z,7.25
2018-10-02T14:34:15.767Z,6.55
2018-10-02T14:36:51.459Z,6.65
2018-10-02T14:39:26.953Z,9.33
2018-10-02T14:42:02.503Z,8.48
2018-10-02T14:44:37.865Z,7.40
2018-10-02T14:47:14.877Z,8.25
2018-10-02T14:49:50.265Z,6.87
2018-10-02T14:52:25.846Z,8.70
2018-10-02T14:55:01.253Z,11.35
2018-10-02T14:57:36.924Z,11.40
2018-10-02T15:00:12.445Z,7.00
2018-10-02T15:02:48.500Z,10.50
2018-10-02T15:05:23.941Z,13.15
2018-10-02T15:07:59.502Z,13.28
2018-10-02T15:10:34.912Z,8.05
2018-10-02T15:13:10.489Z,9.38
2018-10-02T15:15:46.080Z,17.87
2018-10-02T15:18:21.631Z,19.77
2018-10-02T15:20:57.010Z,16.50
2018-10-02T15:23:32.733Z,14.23
2018-10-02T15:26:08.281Z,17.82
2018-10-02T15:28:43.786Z,15.00
2018-10-02T15:31:19.223Z,20.72
2018-10-02T15:33:55.012Z,22.90
2018-10-02T15:36:30.371Z,16.67
2018-10-02T15:39:08.818Z,20.15
2018-10-02T15:41:44.274Z,17.85
2018-10-02T15:44:19.923Z,16.50
2018-10-02T15:46:55.328Z,17.87
2018-10-02T15:49:30.875Z,22.98
2018-10-02T15:52:06.509Z,18.10
2018-10-02T15:54:42.067Z,21.25
2018-10-02T15:57:17.302Z,19.90
2018-10-02T15:59:52.885Z,23.73
2018-10-02T16:02:28.603Z,26.27
2018-10-02T16:05:04.229Z,23.40
2018-10-02T16:07:39.647Z,22.80
2018-10-02T16:10:15.137Z,20.43
2018-10-02T16:12:50.527Z,24.05
2018-10-02T16:15:25.889Z,24.92
2018-10-02T16:18:01.308Z,37.75
2018-10-02T16:20:36.694Z,30.43
2018-10-02T16:23:12.125Z,23.32
2018-10-02T16:25:47.889Z,25.80
2018-10-02T16:28:23.168Z,36.58
2018-10-02T16:30:58.769Z,24.37
2018-10-02T16:33:34.371Z,31.17
2018-10-02T16:36:09.794Z,33.40
2018-10-02T16:38:45.319Z,17.70
2018-10-02T16:41:20.863Z,26.87
2018-10-02T16:43:56.417Z,28.62
2018-10-02T16:46:31.789Z,28.95
2018-10-02T16:49:07.293Z,34.30
2018-10-02T16:51:42.944Z,19.20
2018-10-02T16:54:18.540Z,21.02
2018-10-02T16:56:53.960Z,22.73
2018-10-02T16:59:29.417Z,24.60
2018-10-02T17:02:05.065Z,17.25
2018-10-02T17:04:40.520Z,25.45
2018-10-02T17:07:16.018Z,22.98
2018-10-02T17:09:51.534Z,24.07
2018-10-02T17:12:27.129Z,21.97
2018-10-02T17:15:02.470Z,18.00
2018-10-02T17:17:37.929Z,32.13
2018-10-02T17:20:13.469Z,23.75
2018-10-02T17:22:49.058Z,28.35
2018-10-02T17:25:24.355Z,26.87
2018-10-02T17:27:59.802Z,21.07
2018-10-02T17:30:35.117Z,21.95
2018-10-02T17:33:10.744Z,16.17
2018-10-02T17:35:46.290Z,28.98
2018-10-02T17:38:22.085Z,16.95
2018-10-02T17:40:57.738Z,22.52
2018-10-02T17:43:33.325Z,29.20
2018-10-02T17:46:08.777Z,17.10
2018-10-02T17:48:44.366Z,14.83
2018-10-02T17:51:19.953Z,23.80
2018-10-02T17:53:55.654Z,31.42
2018-10-02T17:56:31.196Z,13.83
2018-10-02T17:59:06.822Z,15.85
2018-10-02T18:01:42.477Z,27.93
2018-10-02T18:04:18.114Z,25.43
2018-10-02T18:06:54.506Z,13.15
2018-10-02T18:09:29.955Z,17.35
2018-10-02T18:12:05.299Z,17.77
2018-10-02T18:14:40.829Z,17.70
2018-10-02T18:17:16.363Z,15.83
2018-10-02T18:19:52.130Z,16.17
2018-10-02T18:22:27.436Z,18.85
2018-10-02T18:25:03.192Z,25.57
2018-10-02T18:27:38.569Z,20.90
2018-10-02T18:30:14.259Z,30.20
2018-10-02T18:32:49.658Z,17.07
2018-10-02T18:35:25.209Z,23.62
2018-10-02T18:38:00.663Z,15.72
2018-10-02T18:40:36.489Z,19.82
2018-10-02T18:43:12.076Z,14.60
2018-10-02T18:45:47.566Z,28.27
2018-10-02T18:48:23.056Z,21.17
2018-10-02T18:50:58.653Z,21.17
2018-10-02T18:53:34.124Z,22.30
2018-10-02T18:56:09.774Z,23.60
2018-10-02T18:58:46.110Z,21.73
2018-10-02T19:01:22.327Z,21.17
2018-10-02T19:03:57.936Z,24.92
2018-10-02T19:06:33.250Z,25.43
2018-10-02T19:09:12.917Z,29.37
2018-10-02T19:11:53.978Z,18.07
2018-10-02T19:14:29.301Z,16.17
2018-10-02T19:17:04.941Z,14.25
2018-10-02T19:19:45.895Z,22.85
2018-10-02T19:22:21.420Z,18.42
2018-10-02T19:25:01.079Z,16.70
2018-10-02T19:27:36.558Z,18.70
2018-10-02T19:30:17.104Z,15.10
2018-10-02T19:32:52.685Z,17.27
2018-10-02T19:35:28.747Z,14.83
2018-10-02T19:38:09.657Z,15.15
2018-10-02T19:40:45.017Z,13.38
2018-10-02T19:43:20.959Z,18.23
2018-10-02T19:46:01.670Z,14.93
2018-10-02T19:48:37.201Z,18.23
2018-10-02T19:51:17.892Z,11.97
2018-10-02T19:53:53.438Z,16.35
2018-10-02T19:56:28.910Z,22.15
2018-10-02T19:59:04.687Z,28.98
2018-10-02T20:01:40.108Z,15.65
2018-10-02T20:04:15.828Z,15.32
2018-10-02T20:06:51.257Z,18.32
2018-10-02T20:09:26.773Z,18.57
2018-10-02T20:12:02.217Z,20.62
2018-10-02T20:14:37.614Z,21.95
2018-10-02T20:17:12.934Z,21.20
2018-10-02T20:19:48.640Z,23.47
2018-10-02T20:22:24.018Z,17.37
2018-10-02T20:24:59.678Z,20.48
2018-10-02T20:27:34.977Z,20.05
2018-10-02T20:30:10.768Z,17.30
2018-10-02T20:32:46.266Z,16.45
2018-10-02T20:35:21.832Z,28.25
2018-10-02T20:37:57.292Z,24.65
2018-10-02T20:40:33.572Z,27.22
2018-10-02T20:43:08.879Z,28.17
2018-10-02T20:45:45.550Z,31.62
2018-10-02T20:48:20.782Z,27.40
2018-10-02T20:50:56.474Z,26.02
2018-10-02T20:53:32.289Z,21.65
2018-10-02T20:56:07.781Z,20.08
2018-10-02T20:58:43.266Z,20.25
2018-10-02T21:01:18.718Z,26.95
2018-10-02T21:03:54.173Z,25.15
2018-10-02T21:06:29.828Z,27.87
2018-10-02T21:09:06.939Z,20.35
2018-10-02T21:11:42.467Z,28.40
2018-10-02T21:14:18.021Z,22.37
2018-10-02T21:16:53.629Z,34.15
2018-10-02T21:19:28.994Z,21.00
2018-10-02T21:22:04.448Z,22.05
2018-10-02T21:24:39.981Z,22.40
2018-10-02T21:27:15.599Z,21.45
2018-10-02T21:29:50.969Z,19.98
2018-10-02T21:32:26.752Z,19.55
2018-10-02T21:35:02.268Z,18.92
2018-10-02T21:37:38.023Z,17.73
2018-10-02T21:40:13.467Z,26.10
2018-10-02T21:42:48.917Z,16.32
2018-10-02T21:45:30.934Z,27.25
2018-10-02T21:48:06.890Z,11.93
2018-10-02T21:50:42.248Z,18.82
2018-10-02T21:53:17.796Z,31.27
2018-10-02T21:55:53.149Z,14.78
2018-10-02T21:58:28.869Z,21.62
2018-10-02T22:01:04.823Z,19.65
2018-10-02T22:03:41.304Z,13.72
2018-10-02T22:06:16.617Z,16.35
2018-10-02T22:08:52.385Z,19.32
2018-10-02T22:11:27.888Z,22.37
2018-10-02T22:14:03.542Z,24.00
2018-10-02T22:16:38.969Z,18.30
2018-10-02T22:19:14.832Z,21.45
2018-10-02T22:21:50.178Z,22.87
2018-10-02T22:24:25.798Z,13.35
2018-10-02T22:27:01.315Z,15.90
2018-10-02T22:29:36.810Z,28.30
2018-10-02T22:32:12.274Z,23.10
2018-10-02T22:34:48.017Z,22.37
2018-10-02T22:37:23.301Z,19.52
2018-10-02T22:39:58.834Z,19.82
2018-10-02T22:42:34.244Z,17.48
2018-10-02T22:45:09.891Z,15.58
2018-10-02T22:47:45.431Z,20.32
2018-10-02T22:50:21.073Z,20.90
2018-10-02T22:52:56.692Z,29.37
2018-10-02T22:55:32.129Z,14.60
2018-10-02T22:58:07.749Z,17.12
2018-10-02T23:00:43.339Z,26.70
2018-10-02T23:03:20.382Z,16.30
2018-10-02T23:05:56.307Z,19.55
2018-10-02T23:08:31.804Z,24.27
2018-10-02T23:11:07.589Z,17.32
2018-10-02T23:13:42.852Z,20.52
2018-10-02T23:16:18.428Z,21.97
2018-10-02T23:18:53.770Z,27.15
2018-10-02T23:21:29.165Z,19.92
2018-10-02T23:24:04.488Z,21.17
2018-10-02T23:26:40.181Z,22.80
2018-10-02T23:29:15.629Z,12.20
2018-10-02T23:31:51.204Z,22.32
2018-10-02T23:34:26.629Z,25.90
2018-10-02T23:37:02.066Z,13.18
2018-10-02T23:39:37.410Z,23.22
2018-10-02T23:42:12.893Z,22.17
2018-10-02T23:44:48.246Z,20.48
2018-10-02T23:47:23.688Z,26.62
2018-10-02T23:49:58.994Z,16.37
2018-10-02T23:52:34.408Z,21.25
2018-10-02T23:55:09.801Z,22.17
2018-10-02T23:57:45.396Z,21.20
